Time;durP1;ratioP1;P1;durP2;ratioP2;P2;SDS_P1;SDS_P2;PMS_P1;PMS_P2;Temp;Humidity;BMP_temperature;BMP_pressure;BME280_temperature;BME280_humidity;BME280_pressure;Samples;Min_cycle;Max_cycle;Signal;HPM_P1;HPM_P2
2022/03/30 00:01:25;;;;;;;26.88;7.90;;;;;;;;;;5086983;28;20235;-70
2022/03/30 00:03:53;;;;;;;29.17;8.25;;;;;;;;;;5094141;28;20261;-70
2022/03/30 00:06:20;;;;;;;23.10;7.25;;;;;;;;;;5105783;28;20256;-70
2022/03/30 00:08:50;;;;;;;19.58;7.57;;;;;;;;;;5113394;28;20211;-70
2022/03/30 00:11:17;;;;;;;37.53;8.65;;;;;;;;;;5113174;28;20592;-70
2022/03/30 00:13:45;;;;;;;23.50;7.00;;;;;;;;;;5113361;28;20291;-70
2022/03/30 00:16:12;;;;;;;22.58;8.70;;;;;;;;;;5113539;28;20221;-70
2022/03/30 00:18:40;;;;;;;19.80;6.55;;;;;;;;;;5112058;28;20204;-70
2022/03/30 00:21:07;;;;;;;28.60;8.30;;;;;;;;;;5093598;28;20228;-70
2022/03/30 00:23:35;;;;;;;27.70;8.23;;;;;;;;;;5093708;28;20210;-70
2022/03/30 00:26:04;;;;;;;27.33;8.68;;;;;;;;;;5113397;28;20208;-70
2022/03/30 00:28:31;;;;;;;28.08;8.65;;;;;;;;;;5113075;28;20588;-70
2022/03/30 00:30:59;;;;;;;26.50;7.85;;;;;;;;;;5108404;28;20207;-70
2022/03/30 00:33:27;;;;;;;23.88;6.95;;;;;;;;;;5093659;28;20204;-70
2022/03/30 00:35:54;;;;;;;30.58;8.05;;;;;;;;;;5093922;28;20670;-70
2022/03/30 00:38:22;;;;;;;35.10;10.30;;;;;;;;;;5093405;28;20302;-69
2022/03/30 00:40:50;;;;;;;23.92;7.72;;;;;;;;;;5093152;28;20228;-70
2022/03/30 00:43:19;;;;;;;35.60;8.57;;;;;;;;;;5093164;28;20218;-70
2022/03/30 00:45:46;;;;;;;29.38;8.20;;;;;;;;;;5093060;28;20207;-70
2022/03/30 00:48:14;;;;;;;21.92;7.68;;;;;;;;;;5093132;28;20246;-70
2022/03/30 00:50:41;;;;;;;23.45;6.88;;;;;;;;;;5093300;28;20207;-70
2022/03/30 00:53:09;;;;;;;33.97;8.60;;;;;;;;;;5093019;28;20291;-70
2022/03/30 00:55:36;;;;;;;26.00;7.72;;;;;;;;;;5093201;28;20207;-70
2022/03/30 00:58:04;;;;;;;27.90;8.35;;;;;;;;;;5093027;28;20590;-70
2022/03/30 01:00:34;;;;;;;23.15;6.97;;;;;;;;;;5093435;28;20218;-70
2022/03/30 01:03:01;;;;;;;22.63;7.78;;;;;;;;;;5093104;28;20204;-69
2022/03/30 01:05:29;;;;;;;26.48;7.80;;;;;;;;;;5092840;28;20208;-70
2022/03/30 01:07:58;;;;;;;25.52;6.65;;;;;;;;;;5093233;28;20295;-70
2022/03/30 01:10:26;;;;;;;26.73;7.75;;;;;;;;;;5092878;28;20208;-70
2022/03/30 01:12:54;;;;;;;30.83;8.20;;;;;;;;;;5092504;28;20596;-70
2022/03/30 01:15:23;;;;;;;24.42;6.20;;;;;;;;;;5112097;28;20203;-69
2022/03/30 01:17:52;;;;;;;22.58;6.95;;;;;;;;;;5112414;28;20272;-70
2022/03/30 01:20:22;;;;;;;20.92;6.20;;;;;;;;;;5112024;28;20210;-69
2022/03/30 01:22:51;;;;;;;30.98;6.15;;;;;;;;;;5112094;28;20711;-70
2022/03/30 01:25:19;;;;;;;30.00;7.88;;;;;;;;;;5111765;28;20595;-70
2022/03/30 01:27:46;;;;;;;49.15;7.63;;;;;;;;;;5112336;28;20209;-70
2022/03/30 01:33:02;;;;;;;31.95;7.70;;;;;;;;;;5112057;28;20226;-72
2022/03/30 01:35:29;;;;;;;28.48;6.90;;;;;;;;;;5111867;28;20618;-70
2022/03/30 01:37:58;;;;;;;22.83;6.72;;;;;;;;;;5095391;28;20664;-70
2022/03/30 01:40:26;;;;;;;23.40;6.82;;;;;;;;;;5091865;28;20219;-70
2022/03/30 01:42:53;;;;;;;26.65;7.13;;;;;;;;;;5092402;28;20235;-70
2022/03/30 01:45:21;;;;;;;32.90;7.45;;;;;;;;;;5091918;28;20680;-69
2022/03/30 01:47:55;;;;;;;27.85;6.57;;;;;;;;;;5092150;28;20228;-70
2022/03/30 01:50:25;;;;;;;25.13;6.85;;;;;;;;;;5092203;28;20302;-70
2022/03/30 01:52:53;;;;;;;24.05;6.30;;;;;;;;;;5092152;28;20210;-70
2022/03/30 01:55:22;;;;;;;33.40;8.35;;;;;;;;;;5111564;28;20203;-70
2022/03/30 01:57:49;;;;;;;20.77;5.72;;;;;;;;;;5111669;28;20281;-70
2022/03/30 02:00:18;;;;;;;29.73;6.65;;;;;;;;;;5111588;28;20210;-70
2022/03/30 02:02:46;;;;;;;23.55;6.50;;;;;;;;;;5111461;28;20231;-69
2022/03/30 02:05:16;;;;;;;33.53;9.10;;;;;;;;;;5111682;28;20231;-70
2022/03/30 02:07:44;;;;;;;24.88;6.55;;;;;;;;;;5111937;28;20210;-70
2022/03/30 02:10:11;;;;;;;23.05;6.30;;;;;;;;;;5095801;28;20204;-70
2022/03/30 02:12:40;;;;;;;24.55;6.88;;;;;;;;;;5091947;28;20208;-69
2022/03/30 02:15:09;;;;;;;23.70;7.13;;;;;;;;;;5091634;28;20200;-69
2022/03/30 02:17:36;;;;;;;21.55;6.10;;;;;;;;;;5092120;28;20208;-70
2022/03/30 02:20:04;;;;;;;26.70;8.55;;;;;;;;;;5092175;28;20208;-70
2022/03/30 02:22:31;;;;;;;31.52;7.75;;;;;;;;;;5111352;28;20238;-69
2022/03/30 02:24:59;;;;;;;22.98;7.38;;;;;;;;;;5111398;28;20672;-69
2022/03/30 02:27:27;;;;;;;23.88;6.40;;;;;;;;;;5111277;28;20207;-70
2022/03/30 02:29:55;;;;;;;22.25;7.50;;;;;;;;;;5111142;28;20211;-70
2022/03/30 02:32:23;;;;;;;24.60;7.15;;;;;;;;;;5111283;28;20214;-70
2022/03/30 02:34:51;;;;;;;24.17;7.43;;;;;;;;;;5111458;28;20204;-70
2022/03/30 02:37:19;;;;;;;24.55;6.65;;;;;;;;;;5111160;28;20210;-70
2022/03/30 02:39:46;;;;;;;31.40;8.45;;;;;;;;;;5110952;28;20306;-70
2022/03/30 02:42:15;;;;;;;20.90;6.65;;;;;;;;;;5111175;28;20228;-70
2022/03/30 02:44:42;;;;;;;28.50;7.50;;;;;;;;;;5111570;28;20203;-70
2022/03/30 02:47:11;;;;;;;24.95;7.35;;;;;;;;;;5084441;28;20204;-70
2022/03/30 02:49:39;;;;;;;21.00;7.05;;;;;;;;;;5091938;28;20204;-69
2022/03/30 02:52:06;;;;;;;23.50;7.07;;;;;;;;;;5091589;28;20212;-70
2022/03/30 02:54:34;;;;;;;24.17;7.75;;;;;;;;;;5091834;28;20218;-69
2022/03/30 02:57:02;;;;;;;22.63;6.82;;;;;;;;;;5091765;28;20215;-70
2022/03/30 02:59:30;;;;;;;26.63;7.78;;;;;;;;;;5094532;28;20211;-70
2022/03/30 03:01:59;;;;;;;25.20;7.30;;;;;;;;;;5095132;28;20735;-70
2022/03/30 03:04:28;;;;;;;21.73;6.85;;;;;;;;;;5095211;28;20203;-70
2022/03/30 03:06:55;;;;;;;25.02;7.53;;;;;;;;;;5095146;28;20207;-69
2022/03/30 03:09:23;;;;;;;27.85;7.40;;;;;;;;;;5095029;28;20212;-69
2022/03/30 03:11:50;;;;;;;28.90;8.82;;;;;;;;;;5094920;28;20207;-70
2022/03/30 03:14:18;;;;;;;22.38;6.78;;;;;;;;;;5094936;28;20212;-70
2022/03/30 03:16:46;;;;;;;25.98;8.57;;;;;;;;;;5094952;28;20204;-70
2022/03/30 03:19:14;;;;;;;29.20;8.50;;;;;;;;;;5094898;28;20291;-70
2022/03/30 03:21:43;;;;;;;24.67;6.95;;;;;;;;;;5094861;28;20232;-70
2022/03/30 03:24:10;;;;;;;22.05;6.63;;;;;;;;;;5095031;28;20218;-70
2022/03/30 03:26:38;;;;;;;22.38;7.10;;;;;;;;;;5094639;28;20668;-70
2022/03/30 03:29:06;;;;;;;30.45;8.23;;;;;;;;;;5094927;28;20211;-70
2022/03/30 03:31:33;;;;;;;26.52;7.55;;;;;;;;;;5094793;28;20204;-69
2022/03/30 03:34:01;;;;;;;19.50;6.38;;;;;;;;;;5094764;28;20219;-70
2022/03/30 03:36:29;;;;;;;22.90;7.20;;;;;;;;;;5095053;28;20572;-70
2022/03/30 03:38:57;;;;;;;25.63;6.70;;;;;;;;;;5094652;28;20236;-69
2022/03/30 03:41:25;;;;;;;25.70;7.75;;;;;;;;;;5094340;28;20208;-70
2022/03/30 03:43:52;;;;;;;28.45;6.88;;;;;;;;;;5094518;28;20208;-70
2022/03/30 03:46:19;;;;;;;23.52;7.22;;;;;;;;;;5094611;28;20290;-70
2022/03/30 03:48:47;;;;;;;21.83;7.13;;;;;;;;;;5094447;28;20246;-70
2022/03/30 03:51:15;;;;;;;33.35;8.82;;;;;;;;;;5109797;28;20214;-70
2022/03/30 03:53:42;;;;;;;23.85;7.38;;;;;;;;;;5113714;28;20222;-70
2022/03/30 03:56:11;;;;;;;24.02;6.40;;;;;;;;;;5113965;28;20204;-70
2022/03/30 03:58:38;;;;;;;28.60;8.38;;;;;;;;;;5113764;28;20204;-70
2022/03/30 04:01:05;;;;;;;26.48;7.13;;;;;;;;;;5086868;28;20208;-69
2022/03/30 04:03:33;;;;;;;24.83;7.80;;;;;;;;;;5093865;28;20232;-70
2022/03/30 04:06:00;;;;;;;22.45;7.03;;;;;;;;;;5094010;28;20278;-70
2022/03/30 04:08:29;;;;;;;26.67;8.27;;;;;;;;;;5093959;28;20648;-70
2022/03/30 04:10:56;;;;;;;27.95;7.25;;;;;;;;;;5093838;28;20214;-70
2022/03/30 04:13:25;;;;;;;24.83;7.45;;;;;;;;;;5093646;28;20223;-69
2022/03/30 04:15:53;;;;;;;28.10;7.75;;;;;;;;;;5093874;28;20728;-69
2022/03/30 04:18:23;;;;;;;22.33;7.03;;;;;;;;;;5093862;28;20278;-69
2022/03/30 04:20:50;;;;;;;32.63;8.32;;;;;;;;;;5093780;28;20729;-69
2022/03/30 04:23:18;;;;;;;31.50;8.30;;;;;;;;;;5093374;28;20239;-69
2022/03/30 04:25:46;;;;;;;27.27;7.13;;;;;;;;;;5092963;28;20206;-70
2022/03/30 04:28:15;;;;;;;28.65;7.75;;;;;;;;;;5113225;28;20207;-71
2022/03/30 04:30:44;;;;;;;41.72;8.20;;;;;;;;;;5113075;28;20217;-70
2022/03/30 04:33:11;;;;;;;22.40;5.97;;;;;;;;;;5112723;28;20676;-70
2022/03/30 04:35:38;;;;;;;24.27;8.32;;;;;;;;;;5112958;28;20217;-70
2022/03/30 04:38:06;;;;;;;24.63;7.75;;;;;;;;;;5113092;28;20286;-69
2022/03/30 04:40:34;;;;;;;27.50;7.70;;;;;;;;;;5112769;28;20678;-69
2022/03/30 04:43:02;;;;;;;29.60;8.50;;;;;;;;;;5112648;28;20237;-69
2022/03/30 04:45:29;;;;;;;23.52;7.20;;;;;;;;;;5112777;28;20672;-70
2022/03/30 04:47:58;;;;;;;23.15;7.70;;;;;;;;;;5113379;28;20623;-70
2022/03/30 04:50:25;;;;;;;32.28;7.47;;;;;;;;;;5086080;28;20207;-71
2022/03/30 04:52:53;;;;;;;35.00;8.88;;;;;;;;;;5093123;28;20303;-70
2022/03/30 04:55:21;;;;;;;31.73;8.25;;;;;;;;;;5093005;28;20204;-71
2022/03/30 04:57:48;;;;;;;26.67;8.45;;;;;;;;;;5093066;28;20212;-71
2022/03/30 05:00:16;;;;;;;25.95;9.50;;;;;;;;;;5093335;28;20203;-70
2022/03/30 05:02:43;;;;;;;24.35;8.63;;;;;;;;;;5093097;28;20243;-70
2022/03/30 05:05:12;;;;;;;23.30;6.78;;;;;;;;;;5092715;28;20613;-71
2022/03/30 05:07:40;;;;;;;27.33;7.70;;;;;;;;;;5092983;28;20260;-70
2022/03/30 05:10:10;;;;;;;35.13;8.80;;;;;;;;;;5092732;28;20208;-70
2022/03/30 05:12:37;;;;;;;18.98;6.40;;;;;;;;;;5087085;28;20208;-69
2022/03/30 05:15:05;;;;;;;32.57;7.03;;;;;;;;;;5092769;28;20315;-69
2022/03/30 05:17:34;;;;;;;25.07;7.70;;;;;;;;;;5092958;28;20796;-69
2022/03/30 05:20:01;;;;;;;26.63;9.77;;;;;;;;;;5092898;28;20818;-69
2022/03/30 05:22:30;;;;;;;28.43;8.67;;;;;;;;;;5092023;28;20780;-69
2022/03/30 05:24:58;;;;;;;23.00;8.20;;;;;;;;;;5092843;28;20442;-70
2022/03/30 05:27:25;;;;;;;28.10;7.93;;;;;;;;;;5092280;28;20817;-70
2022/03/30 05:29:52;;;;;;;23.07;9.83;;;;;;;;;;5092740;28;20438;-70
2022/03/30 05:32:20;;;;;;;25.07;8.03;;;;;;;;;;5092657;28;20452;-70
2022/03/30 05:34:48;;;;;;;27.57;7.10;;;;;;;;;;5092323;28;20450;-70
2022/03/30 05:37:15;;;;;;;28.00;9.30;;;;;;;;;;5085148;28;20446;-70
2022/03/30 05:39:45;;;;;;;27.03;8.30;;;;;;;;;;5092184;28;20982;-70
2022/03/30 05:42:14;;;;;;;23.53;9.53;;;;;;;;;;5092451;28;20485;-70
2022/03/30 05:44:42;;;;;;;25.90;8.30;;;;;;;;;;5092524;28;20448;-70
2022/03/30 05:47:09;;;;;;;34.43;10.70;;;;;;;;;;5092090;28;20458;-70
2022/03/30 05:49:37;;;;;;;24.30;7.87;;;;;;;;;;5092295;28;20576;-70
2022/03/30 05:52:06;;;;;;;24.27;8.70;;;;;;;;;;5092279;28;20532;-70
2022/03/30 05:54:34;;;;;;;31.70;9.30;;;;;;;;;;5092048;28;20456;-70
2022/03/30 05:57:05;;;;;;;27.50;9.10;;;;;;;;;;5092364;28;20454;-70
2022/03/30 05:59:34;;;;;;;28.97;8.60;;;;;;;;;;5092146;28;20450;-72
2022/03/30 06:02:01;;;;;;;23.23;7.50;;;;;;;;;;5092330;28;20515;-72
2022/03/30 06:04:29;;;;;;;23.77;9.17;;;;;;;;;;5111541;28;20991;-72
2022/03/30 06:06:57;;;;;;;24.07;8.70;;;;;;;;;;5111604;28;20448;-72
2022/03/30 06:09:25;;;;;;;26.33;8.33;;;;;;;;;;5111562;28;20539;-72
2022/03/30 06:11:52;;;;;;;21.27;8.50;;;;;;;;;;5111679;28;20495;-72
2022/03/30 06:14:22;;;;;;;26.50;9.47;;;;;;;;;;5111496;28;20479;-72
2022/03/30 06:16:50;;;;;;;26.37;8.97;;;;;;;;;;5111582;28;20472;-72
2022/03/30 06:19:17;;;;;;;30.43;10.23;;;;;;;;;;5111109;28;20457;-72
2022/03/30 06:21:44;;;;;;;23.80;8.37;;;;;;;;;;5111639;28;20444;-72
2022/03/30 06:24:12;;;;;;;28.80;8.93;;;;;;;;;;5111384;28;20488;-72
2022/03/30 06:26:40;;;;;;;27.63;9.30;;;;;;;;;;5111846;28;20524;-72
2022/03/30 06:29:07;;;;;;;25.50;9.30;;;;;;;;;;5111151;28;20455;-73
2022/03/30 06:31:36;;;;;;;29.43;8.30;;;;;;;;;;5111175;28;20466;-72
2022/03/30 06:34:04;;;;;;;25.00;9.60;;;;;;;;;;5104476;28;21010;-72
2022/03/30 06:36:33;;;;;;;26.00;10.50;;;;;;;;;;5095672;28;20445;-72
2022/03/30 06:39:01;;;;;;;28.37;9.00;;;;;;;;;;5095380;28;20461;-72
2022/03/30 06:41:29;;;;;;;26.87;9.03;;;;;;;;;;5095635;28;20484;-72
2022/03/30 06:43:58;;;;;;;32.00;10.83;;;;;;;;;;5110364;28;20487;-72
2022/03/30 06:46:25;;;;;;;22.47;9.07;;;;;;;;;;5115424;28;21062;-72
2022/03/30 06:48:54;;;;;;;26.53;9.60;;;;;;;;;;5115238;28;21009;-72
2022/03/30 06:51:21;;;;;;;32.83;11.47;;;;;;;;;;5088203;28;20457;-72
2022/03/30 06:53:49;;;;;;;33.10;9.90;;;;;;;;;;5095581;28;20477;-72
2022/03/30 06:56:16;;;;;;;29.10;9.87;;;;;;;;;;5095397;28;20455;-72
2022/03/30 06:58:43;;;;;;;32.10;10.33;;;;;;;;;;5095226;28;20445;-72
2022/03/30 07:01:14;;;;;;;27.00;10.53;;;;;;;;;;5095458;28;20828;-73
2022/03/30 07:03:41;;;;;;;23.80;9.60;;;;;;;;;;5095182;28;20482;-73
2022/03/30 07:06:10;;;;;;;29.40;9.57;;;;;;;;;;5095752;28;20447;-73
2022/03/30 07:11:22;;;;;;;29.53;10.40;;;;;;;;;;5095012;28;20449;-73
2022/03/30 07:13:51;;;;;;;28.60;10.93;;;;;;;;;;5095366;28;20453;-73
2022/03/30 07:16:19;;;;;;;26.50;9.30;;;;;;;;;;5094886;28;20536;-73
2022/03/30 07:18:46;;;;;;;22.23;8.77;;;;;;;;;;5095258;28;20442;-73
2022/03/30 07:21:15;;;;;;;32.50;12.03;;;;;;;;;;5094633;28;20463;-73
2022/03/30 07:23:43;;;;;;;25.53;9.53;;;;;;;;;;5087877;28;20485;-72
2022/03/30 07:26:10;;;;;;;27.73;9.60;;;;;;;;;;5095026;28;20480;-73
2022/03/30 07:28:38;;;;;;;28.83;9.20;;;;;;;;;;5094914;28;20451;-73
2022/03/30 07:31:05;;;;;;;33.03;10.37;;;;;;;;;;5094583;28;20464;-73
2022/03/30 07:33:33;;;;;;;29.33;10.53;;;;;;;;;;5094736;28;20460;-73
2022/03/30 07:36:01;;;;;;;26.73;9.63;;;;;;;;;;5094604;28;20447;-73
2022/03/30 07:38:31;;;;;;;28.07;10.10;;;;;;;;;;5094228;28;20535;-72
2022/03/30 07:41:02;;;;;;;24.40;9.77;;;;;;;;;;5094919;28;20514;-73
2022/03/30 07:43:29;;;;;;;29.00;11.20;;;;;;;;;;5094296;28;20913;-72
2022/03/30 07:45:57;;;;;;;27.73;11.40;;;;;;;;;;5094204;28;20462;-73
2022/03/30 07:48:24;;;;;;;29.73;10.30;;;;;;;;;;5087701;28;20895;-73
2022/03/30 07:50:52;;;;;;;26.13;9.73;;;;;;;;;;5094335;28;20541;-73
2022/03/30 07:53:20;;;;;;;27.97;9.23;;;;;;;;;;5094545;28;20810;-72
2022/03/30 07:55:48;;;;;;;30.30;10.73;;;;;;;;;;5094139;28;20451;-73
2022/03/30 07:58:16;;;;;;;26.63;10.17;;;;;;;;;;5094327;28;20460;-72
2022/03/30 08:00:44;;;;;;;25.57;9.60;;;;;;;;;;5094340;28;20447;-73
2022/03/30 08:03:11;;;;;;;27.27;10.00;;;;;;;;;;5093897;28;20494;-73
2022/03/30 08:05:39;;;;;;;28.70;10.10;;;;;;;;;;5094254;28;20959;-73
2022/03/30 08:08:07;;;;;;;25.80;9.27;;;;;;;;;;5094142;28;20457;-73
2022/03/30 08:10:35;;;;;;;30.80;10.07;;;;;;;;;;5113892;28;20942;-73
2022/03/30 08:13:04;;;;;;;29.07;9.87;;;;;;;;;;5113639;28;20834;-73
2022/03/30 08:15:32;;;;;;;28.37;9.23;;;;;;;;;;5113403;28;20473;-73
2022/03/30 08:18:00;;;;;;;25.80;10.10;;;;;;;;;;5113515;28;20965;-73
2022/03/30 08:23:13;;;;;;;30.40;11.33;;;;;;;;;;5113173;28;20476;-73
2022/03/30 08:25:40;;;;;;;29.93;10.33;;;;;;;;;;5113177;28;20467;-73
2022/03/30 08:28:09;;;;;;;25.43;9.00;;;;;;;;;;5113050;28;20456;-73
2022/03/30 08:30:36;;;;;;;27.70;9.43;;;;;;;;;;5113444;28;20487;-73
2022/03/30 08:33:05;;;;;;;24.53;8.27;;;;;;;;;;5112795;28;20953;-73
2022/03/30 08:35:32;;;;;;;26.67;9.67;;;;;;;;;;5113102;28;20897;-73
2022/03/30 08:38:00;;;;;;;26.07;9.40;;;;;;;;;;5112903;28;20454;-73
2022/03/30 08:40:27;;;;;;;24.17;9.90;;;;;;;;;;5112946;28;20555;-73
2022/03/30 08:42:56;;;;;;;24.10;9.10;;;;;;;;;;5086678;28;20999;-73
2022/03/30 08:45:25;;;;;;;27.40;10.27;;;;;;;;;;5093295;28;20891;-73
2022/03/30 08:47:52;;;;;;;29.47;11.13;;;;;;;;;;5093106;28;20539;-72
2022/03/30 08:50:21;;;;;;;30.67;13.30;;;;;;;;;;5093304;28;20797;-73
2022/03/30 08:52:49;;;;;;;28.50;13.23;;;;;;;;;;5093218;28;20450;-73
2022/03/30 08:55:17;;;;;;;30.00;14.03;;;;;;;;;;5092359;28;20994;-73
2022/03/30 08:57:45;;;;;;;30.03;11.97;;;;;;;;;;5093132;28;20544;-72
2022/03/30 09:00:16;;;;;;;29.77;11.43;;;;;;;;;;5092940;28;20456;-73
2022/03/30 09:02:46;;;;;;;26.23;10.17;;;;;;;;;;5093340;28;20442;-73
2022/03/30 09:05:15;;;;;;;28.77;9.60;;;;;;;;;;5092775;28;20503;-73
2022/03/30 09:07:43;;;;;;;25.70;9.63;;;;;;;;;;5093251;28;20462;-73
2022/03/30 09:10:14;;;;;;;32.03;10.77;;;;;;;;;;5086346;28;20450;-73
2022/03/30 09:12:42;;;;;;;28.93;10.50;;;;;;;;;;5086105;28;20444;-73
2022/03/30 09:15:11;;;;;;;39.33;11.63;;;;;;;;;;5092763;28;20471;-73
2022/03/30 09:17:39;;;;;;;25.07;9.30;;;;;;;;;;5092662;28;20455;-73
2022/03/30 09:20:09;;;;;;;27.60;10.40;;;;;;;;;;5092581;28;20438;-73
2022/03/30 09:22:42;;;;;;;23.23;8.20;;;;;;;;;;5092622;28;20442;-73
2022/03/30 09:25:11;;;;;;;36.50;11.40;;;;;;;;;;5092618;28;20578;-73
2022/03/30 09:27:41;;;;;;;26.63;11.40;;;;;;;;;;5092844;28;20510;-73
2022/03/30 09:30:09;;;;;;;28.23;10.20;;;;;;;;;;5092794;28;20451;-73
2022/03/30 09:32:38;;;;;;;27.30;9.07;;;;;;;;;;5092519;28;20440;-73
2022/03/30 09:35:06;;;;;;;23.50;9.13;;;;;;;;;;5092646;28;20456;-73
2022/03/30 09:37:35;;;;;;;22.40;8.47;;;;;;;;;;5092555;28;20498;-73
2022/03/30 09:40:10;;;;;;;24.33;10.20;;;;;;;;;;5092454;28;20481;-73
2022/03/30 09:42:38;;;;;;;22.73;9.20;;;;;;;;;;5092659;28;20456;-73
2022/03/30 09:45:06;;;;;;;27.77;9.70;;;;;;;;;;5092001;28;20485;-73
2022/03/30 09:47:38;;;;;;;28.83;10.10;;;;;;;;;;5092275;28;20975;-72
2022/03/30 09:50:08;;;;;;;28.33;9.07;;;;;;;;;;5092233;28;21039;-73
2022/03/30 09:52:37;;;;;;;32.87;8.90;;;;;;;;;;5092283;28;20452;-73
2022/03/30 09:55:06;;;;;;;27.70;9.23;;;;;;;;;;5091986;28;20458;-73
2022/03/30 09:57:40;;;;;;;25.47;9.87;;;;;;;;;;5092154;28;20448;-73
2022/03/30 10:00:08;;;;;;;25.10;9.83;;;;;;;;;;5092132;28;20460;-73
2022/03/30 10:02:37;;;;;;;33.43;10.70;;;;;;;;;;5092393;28;20442;-72
2022/03/30 10:05:05;;;;;;;27.30;10.60;;;;;;;;;;5092015;28;20988;-72
2022/03/30 10:07:33;;;;;;;27.90;10.87;;;;;;;;;;5093782;28;20541;-72
2022/03/30 10:10:02;;;;;;;30.63;10.70;;;;;;;;;;5096321;28;20445;-72
2022/03/30 10:12:30;;;;;;;26.23;11.40;;;;;;;;;;5096458;28;20458;-72
2022/03/30 10:14:58;;;;;;;27.13;11.03;;;;;;;;;;5096708;28;20447;-72
2022/03/30 10:17:27;;;;;;;30.57;9.93;;;;;;;;;;5089035;28;20446;-72
2022/03/30 10:19:57;;;;;;;24.80;9.83;;;;;;;;;;5096190;28;20456;-72
2022/03/30 10:22:40;;;;;;;27.10;10.20;;;;;;;;;;5096104;28;20450;-72
2022/03/30 10:25:16;;;;;;;26.17;11.17;;;;;;;;;;5095877;28;20565;-72
2022/03/30 10:27:47;;;;;;;29.63;11.33;;;;;;;;;;5096243;28;20470;-72
2022/03/30 10:30:15;;;;;;;30.70;11.10;;;;;;;;;;5096065;28;20450;-72
2022/03/30 10:32:42;;;;;;;30.83;11.70;;;;;;;;;;5115490;28;20449;-72
2022/03/30 10:35:11;;;;;;;31.07;10.80;;;;;;;;;;5115132;28;20460;-72
2022/03/30 10:37:39;;;;;;;26.47;11.00;;;;;;;;;;5115639;28;20440;-72
2022/03/30 10:40:17;;;;;;;26.33;11.40;;;;;;;;;;5115136;28;20466;-73
2022/03/30 10:43:00;;;;;;;32.73;10.70;;;;;;;;;;5115249;28;20974;-72
2022/03/30 10:45:31;;;;;;;29.13;10.43;;;;;;;;;;5114860;28;20881;-73
2022/03/30 10:48:09;;;;;;;31.40;11.90;;;;;;;;;;5114943;28;20472;-73
2022/03/30 10:50:36;;;;;;;32.23;11.90;;;;;;;;;;5115252;28;20933;-72
2022/03/30 10:53:04;;;;;;;28.53;12.30;;;;;;;;;;5115061;28;20452;-72
2022/03/30 10:55:36;;;;;;;31.93;10.77;;;;;;;;;;5115003;28;20451;-72
2022/03/30 10:58:05;;;;;;;30.97;11.37;;;;;;;;;;5115359;28;20441;-72
2022/03/30 11:00:34;;;;;;;31.40;12.10;;;;;;;;;;5115100;28;20444;-72
2022/03/30 11:03:09;;;;;;;25.63;11.63;;;;;;;;;;5115000;28;20436;-72
2022/03/30 11:05:37;;;;;;;31.70;12.73;;;;;;;;;;5114902;28;20493;-73
2022/03/30 11:08:06;;;;;;;30.37;11.40;;;;;;;;;;5114693;28;20449;-72
2022/03/30 11:10:47;;;;;;;30.30;12.40;;;;;;;;;;5114690;28;20447;-72
2022/03/30 11:13:24;;;;;;;38.00;14.50;;;;;;;;;;5114397;28;20448;-73
2022/03/30 11:16:11;;;;;;;31.33;13.80;;;;;;;;;;5114798;28;20469;-72
2022/03/30 11:18:54;;;;;;;40.67;12.77;;;;;;;;;;5114009;28;20546;-72
2022/03/30 11:21:21;;;;;;;33.23;13.30;;;;;;;;;;5114290;28;20450;-72
2022/03/30 11:24:03;;;;;;;36.30;12.33;;;;;;;;;;5114494;28;20648;-72
2022/03/30 11:26:49;;;;;;;31.17;12.20;;;;;;;;;;5114291;28;20452;-72
2022/03/30 11:29:37;;;;;;;42.90;13.80;;;;;;;;;;5114027;28;20453;-72
2022/03/30 11:32:32;;;;;;;34.07;13.23;;;;;;;;;;5115001;28;20445;-72
2022/03/30 11:35:00;;;;;;;27.47;11.47;;;;;;;;;;5114447;28;20464;-73
2022/03/30 11:37:28;;;;;;;29.87;12.37;;;;;;;;;;5114101;28;20815;-73
2022/03/30 11:40:01;;;;;;;28.63;11.17;;;;;;;;;;5094025;28;20499;-72
2022/03/30 11:42:29;;;;;;;30.93;12.67;;;;;;;;;;5114183;28;20455;-72
2022/03/30 11:45:15;;;;;;;28.20;11.37;;;;;;;;;;5114132;28;20478;-72
2022/03/30 11:47:45;;;;;;;31.03;11.67;;;;;;;;;;5114571;28;20468;-72
2022/03/30 11:50:14;;;;;;;27.70;11.20;;;;;;;;;;5087824;28;20478;-72
2022/03/30 11:52:42;;;;;;;31.53;11.90;;;;;;;;;;5094676;28;20452;-72
2022/03/30 11:55:10;;;;;;;28.43;11.50;;;;;;;;;;5094080;28;20455;-72
2022/03/30 11:57:42;;;;;;;29.70;11.20;;;;;;;;;;5094355;28;20938;-72
2022/03/30 12:00:12;;;;;;;33.47;12.10;;;;;;;;;;5094225;28;20461;-73
2022/03/30 12:02:40;;;;;;;28.37;13.00;;;;;;;;;;5094028;28;20461;-73
2022/03/30 12:05:09;;;;;;;28.53;11.80;;;;;;;;;;5094068;28;20482;-72
2022/03/30 12:07:37;;;;;;;28.70;11.80;;;;;;;;;;5094270;28;20456;-72
2022/03/30 12:10:05;;;;;;;27.50;11.00;;;;;;;;;;5094051;28;20446;-72
2022/03/30 12:12:36;;;;;;;28.73;10.67;;;;;;;;;;5094102;28;20531;-72
2022/03/30 12:15:05;;;;;;;31.73;11.57;;;;;;;;;;5093890;28;20459;-73
2022/03/30 12:17:33;;;;;;;23.80;11.10;;;;;;;;;;5093798;28;20461;-73
2022/03/30 12:20:01;;;;;;;27.97;10.33;;;;;;;;;;5094098;28;20449;-73
2022/03/30 12:22:30;;;;;;;27.63;10.87;;;;;;;;;;5113925;28;20430;-73
2022/03/30 12:24:58;;;;;;;26.43;10.50;;;;;;;;;;5113047;28;20496;-72
2022/03/30 12:27:25;;;;;;;29.53;12.27;;;;;;;;;;5112999;28;20952;-73
2022/03/30 12:29:55;;;;;;;36.37;11.13;;;;;;;;;;5112776;28;20451;-73
2022/03/30 12:32:24;;;;;;;28.40;10.87;;;;;;;;;;5113190;28;20840;-72
2022/03/30 12:35:06;;;;;;;27.90;12.50;;;;;;;;;;5113012;28;20457;-73
2022/03/30 12:37:35;;;;;;;25.47;11.20;;;;;;;;;;5113302;28;20595;-73
2022/03/30 12:40:10;;;;;;;28.83;10.50;;;;;;;;;;5112495;28;20977;-73
2022/03/30 12:42:38;;;;;;;38.43;12.73;;;;;;;;;;5113099;28;20850;-72
2022/03/30 12:45:10;;;;;;;29.90;10.80;;;;;;;;;;5112671;28;20505;-72
2022/03/30 12:47:39;;;;;;;27.53;11.10;;;;;;;;;;5112841;28;20487;-72
2022/03/30 12:50:08;;;;;;;29.77;10.60;;;;;;;;;;5113045;28;20457;-72
2022/03/30 12:52:39;;;;;;;24.20;11.17;;;;;;;;;;5112575;28;21041;-73
2022/03/30 12:55:14;;;;;;;35.80;13.87;;;;;;;;;;5112674;28;20457;-72
2022/03/30 12:57:50;;;;;;;27.53;10.90;;;;;;;;;;5112529;28;20453;-72
2022/03/30 13:00:19;;;;;;;26.97;11.10;;;;;;;;;;5112899;28;20448;-73
2022/03/30 13:02:47;;;;;;;23.57;9.77;;;;;;;;;;5112452;28;20942;-73
2022/03/30 13:05:24;;;;;;;31.77;12.60;;;;;;;;;;5112077;28;20481;-73
2022/03/30 13:07:53;;;;;;;30.23;10.53;;;;;;;;;;5112487;28;21002;-73
2022/03/30 13:10:21;;;;;;;23.00;9.73;;;;;;;;;;5112435;28;20463;-72
2022/03/30 13:12:51;;;;;;;31.60;11.37;;;;;;;;;;5112362;28;20457;-72
2022/03/30 13:15:21;;;;;;;27.23;11.33;;;;;;;;;;5098358;28;20442;-72
2022/03/30 13:17:59;;;;;;;26.80;11.50;;;;;;;;;;5086154;28;20484;-72
2022/03/30 13:20:28;;;;;;;34.30;10.70;;;;;;;;;;5092796;28;20453;-72
2022/03/30 13:23:00;;;;;;;27.23;11.53;;;;;;;;;;5092472;28;20475;-73
2022/03/30 13:25:29;;;;;;;28.20;11.30;;;;;;;;;;5092420;28;20490;-72
2022/03/30 13:27:57;;;;;;;27.00;10.67;;;;;;;;;;5085848;28;20447;-72
2022/03/30 13:30:24;;;;;;;28.13;10.10;;;;;;;;;;5092390;28;20833;-73
2022/03/30 13:32:52;;;;;;;27.63;10.43;;;;;;;;;;5097488;28;20458;-72
2022/03/30 13:35:20;;;;;;;32.40;13.00;;;;;;;;;;5111766;28;20462;-73
2022/03/30 13:37:48;;;;;;;28.63;10.50;;;;;;;;;;5112247;28;20449;-73
2022/03/30 13:40:17;;;;;;;25.77;10.43;;;;;;;;;;5108906;28;20574;-73
2022/03/30 13:42:45;;;;;;;27.27;10.30;;;;;;;;;;5091736;28;20448;-72
2022/03/30 13:45:14;;;;;;;37.50;13.70;;;;;;;;;;5092440;28;20572;-73
2022/03/30 13:47:42;;;;;;;25.37;10.23;;;;;;;;;;5092304;28;20492;-72
2022/03/30 13:50:10;;;;;;;27.13;10.70;;;;;;;;;;5092299;28;21082;-72
2022/03/30 13:52:38;;;;;;;26.37;11.40;;;;;;;;;;5092232;28;20450;-72
2022/03/30 13:55:07;;;;;;;34.87;11.60;;;;;;;;;;5091866;28;20573;-72
2022/03/30 13:57:36;;;;;;;24.90;10.03;;;;;;;;;;5092302;28;20799;-72
2022/03/30 14:00:04;;;;;;;24.40;11.30;;;;;;;;;;5092153;28;20451;-72
2022/03/30 14:02:31;;;;;;;27.17;11.97;;;;;;;;;;5092424;28;20452;-72
2022/03/30 14:04:59;;;;;;;33.43;12.23;;;;;;;;;;5092066;28;20480;-72
2022/03/30 14:07:29;;;;;;;26.17;11.30;;;;;;;;;;5091795;28;20463;-72
2022/03/30 14:09:56;;;;;;;29.07;9.80;;;;;;;;;;5092227;28;20825;-72
2022/03/30 14:12:27;;;;;;;28.63;11.00;;;;;;;;;;5092335;28;20986;-73
2022/03/30 14:14:56;;;;;;;29.00;11.80;;;;;;;;;;5092484;28;20453;-72
2022/03/30 14:17:23;;;;;;;28.33;11.17;;;;;;;;;;5091795;28;20468;-72
2022/03/30 14:19:52;;;;;;;31.10;11.70;;;;;;;;;;5091845;28;20448;-73
2022/03/30 14:22:19;;;;;;;35.80;11.60;;;;;;;;;;5111417;28;20507;-72
2022/03/30 14:24:47;;;;;;;30.23;11.87;;;;;;;;;;5111283;28;20801;-73
2022/03/30 14:27:15;;;;;;;36.63;12.40;;;;;;;;;;5111386;28;20460;-72
2022/03/30 14:29:43;;;;;;;28.13;11.10;;;;;;;;;;5111500;28;20507;-72
2022/03/30 14:32:12;;;;;;;30.33;12.10;;;;;;;;;;5111308;28;20965;-72
2022/03/30 14:34:39;;;;;;;37.87;13.23;;;;;;;;;;5111226;28;20460;-72
2022/03/30 14:37:07;;;;;;;26.23;10.60;;;;;;;;;;5111057;28;20804;-73
2022/03/30 14:39:35;;;;;;;28.23;11.13;;;;;;;;;;5111181;28;20474;-72
2022/03/30 14:42:03;;;;;;;33.97;11.90;;;;;;;;;;5111333;28;20451;-72